createdAt,value
2018-04-19T00:02:08.916Z,10.00
2018-04-19T00:04:35.262Z,8.97
2018-04-19T00:07:01.574Z,12.53
2018-04-19T00:09:27.924Z,8.87
2018-04-19T00:11:54.342Z,13.50
2018-04-19T00:14:20.646Z,14.37
2018-04-19T00:16:51.674Z,8.00
2018-04-19T00:19:18.015Z,10.77
2018-04-19T00:21:44.386Z,8.70
2018-04-19T00:24:10.705Z,8.30
2018-04-19T00:26:45.291Z,6.20
2018-04-19T00:29:11.678Z,11.83
2018-04-19T00:31:38.072Z,7.40
2018-04-19T00:34:05.202Z,7.67
2018-04-19T00:36:36.228Z,10.20
2018-04-19T00:39:03.436Z,10.17
2018-04-19T00:41:29.847Z,16.83
2018-04-19T00:44:07.224Z,18.07
2018-04-19T00:46:33.660Z,16.10
2018-04-19T00:49:00.008Z,14.80
2018-04-19T00:51:29.245Z,10.17
2018-04-19T00:53:55.636Z,10.70
2018-04-19T00:56:22.045Z,8.83
2018-04-19T00:59:02.356Z,10.30
2018-04-19T01:01:28.759Z,11.83
2018-04-19T01:04:07.093Z,12.67
2018-04-19T01:06:33.472Z,12.30
2018-04-19T01:09:01.919Z,12.60
2018-04-19T01:11:28.316Z,10.13
2018-04-19T01:13:54.674Z,11.37
2018-04-19T01:16:21.779Z,14.57
2018-04-19T01:18:59.359Z,13.73
2018-04-19T01:21:25.763Z,10.13
2018-04-19T01:23:52.144Z,11.97
2018-04-19T01:26:18.601Z,13.83
2018-04-19T01:28:45.737Z,12.10
2018-04-19T01:31:12.171Z,16.20
2018-04-19T01:33:39.284Z,12.60
2018-04-19T01:36:17.879Z,11.33
2018-04-19T01:39:05.644Z,15.70
2018-04-19T01:41:32.033Z,9.03
2018-04-19T01:44:20.937Z,14.23
2018-04-19T01:46:47.345Z,15.77
2018-04-19T01:49:24.974Z,19.53
2018-04-19T01:51:52.171Z,13.13
2018-04-19T01:54:19.328Z,14.43
2018-04-19T01:56:46.449Z,14.43
2018-04-19T01:59:37.595Z,13.57
2018-04-19T02:02:04.833Z,16.23
2018-04-19T02:04:31.295Z,20.23
2018-04-19T02:06:57.737Z,15.13
2018-04-19T02:09:26.196Z,14.07
2018-04-19T02:11:53.362Z,15.43
2018-04-19T02:14:19.746Z,15.10
2018-04-19T02:16:46.952Z,17.90
2018-04-19T02:19:13.405Z,18.83
2018-04-19T02:21:39.839Z,15.43
2018-04-19T02:24:06.250Z,16.50
2018-04-19T02:26:32.701Z,12.90
2018-04-19T02:28:59.107Z,12.20
2018-04-19T02:31:25.554Z,12.63
2018-04-19T02:33:51.959Z,14.27
2018-04-19T02:36:19.268Z,21.50
2018-04-19T02:38:45.657Z,18.83
2018-04-19T02:41:13.811Z,20.20
2018-04-19T02:43:40.182Z,18.80
2018-04-19T02:46:07.643Z,16.30
2018-04-19T02:48:34.042Z,23.57
2018-04-19T02:51:01.210Z,16.67
2018-04-19T02:53:28.338Z,12.00
2018-04-19T02:55:54.754Z,13.97
2018-04-19T02:58:34.377Z,15.90
2018-04-19T03:01:00.762Z,14.20
2018-04-19T03:03:27.933Z,14.00
2018-04-19T03:06:09.574Z,18.67
2018-04-19T03:08:35.948Z,15.83
2018-04-19T03:11:02.382Z,16.60
2018-04-19T03:13:28.773Z,19.43
2018-04-19T03:15:55.945Z,18.43
2018-04-19T03:18:28.230Z,20.03
2018-04-19T03:20:55.728Z,14.90
2018-04-19T03:23:22.245Z,17.90
2018-04-19T03:25:48.633Z,16.50
2018-04-19T03:28:15.787Z,16.37
2018-04-19T03:31:07.087Z,16.73
2018-04-19T03:33:33.490Z,15.50
2018-04-19T03:36:00.947Z,16.30
2018-04-19T03:38:27.369Z,14.73
2018-04-19T03:40:53.770Z,18.83
2018-04-19T03:43:21.030Z,15.87
2018-04-19T03:45:48.169Z,16.00
2018-04-19T03:48:15.351Z,17.03
2018-04-19T03:50:41.758Z,15.53
2018-04-19T03:53:08.986Z,20.30
2018-04-19T03:55:35.403Z,17.60
2018-04-19T03:58:01.823Z,16.00
2018-04-19T04:00:28.240Z,16.43
2018-04-19T04:02:54.682Z,16.93
2018-04-19T04:05:21.094Z,16.93
2018-04-19T04:07:48.257Z,17.03
2018-04-19T04:10:14.669Z,16.90
2018-04-19T04:12:41.830Z,20.60
2018-04-19T04:15:09.015Z,17.87
2018-04-19T04:17:47.734Z,19.07
2018-04-19T04:20:26.342Z,18.30
2018-04-19T04:23:05.039Z,15.97
2018-04-19T04:25:32.194Z,17.70
2018-04-19T04:27:58.657Z,16.77
2018-04-19T04:30:25.038Z,19.40
2018-04-19T04:32:51.967Z,17.13
2018-04-19T04:35:18.539Z,20.20
2018-04-19T04:37:44.951Z,22.97
2018-04-19T04:40:11.348Z,18.00
2018-04-19T04:42:37.761Z,20.97
2018-04-19T04:45:04.198Z,18.33
2018-04-19T04:47:30.654Z,21.70
2018-04-19T04:49:57.066Z,17.83
2018-04-19T04:52:23.537Z,17.90
2018-04-19T04:54:49.933Z,18.10
2018-04-19T04:57:16.353Z,17.40
2018-04-19T04:59:43.543Z,18.73
2018-04-19T05:02:09.986Z,17.93
2018-04-19T05:04:36.409Z,17.83
2018-04-19T05:07:02.983Z,22.73
2018-04-19T05:09:29.381Z,26.90
2018-04-19T05:11:56.035Z,16.43
2018-04-19T05:14:23.207Z,21.27
2018-04-19T05:16:49.613Z,19.50
2018-04-19T05:19:16.009Z,15.77
2018-04-19T05:21:42.437Z,18.67
2018-04-19T05:24:09.844Z,19.50
2018-04-19T05:26:36.284Z,19.57
2018-04-19T05:29:02.701Z,17.83
2018-04-19T05:31:29.133Z,17.00
2018-04-19T05:33:57.023Z,18.03
2018-04-19T05:36:24.064Z,16.40
2018-04-19T05:38:50.469Z,16.60
2018-04-19T05:41:16.877Z,18.17
2018-04-19T05:43:43.285Z,16.97
2018-04-19T05:46:10.211Z,16.90
2018-04-19T05:48:36.743Z,19.73
2018-04-19T05:51:07.027Z,20.90
2018-04-19T05:53:34.191Z,17.93
2018-04-19T05:56:00.593Z,16.63
2018-04-19T05:58:27.500Z,19.13
2018-04-19T06:00:54.007Z,20.90
2018-04-19T06:03:20.431Z,19.67
2018-04-19T06:05:47.574Z,16.77
2018-04-19T06:08:13.991Z,20.47
2018-04-19T06:10:41.146Z,17.17
2018-04-19T06:13:08.329Z,19.80
2018-04-19T06:15:34.730Z,19.20
2018-04-19T06:18:01.887Z,16.90
2018-04-19T06:20:29.068Z,16.93
2018-04-19T06:22:55.638Z,15.43
2018-04-19T06:25:22.050Z,17.60
2018-04-19T06:27:48.465Z,17.50
2018-04-19T06:30:14.911Z,22.10
2018-04-19T06:32:41.424Z,21.50
2018-04-19T06:35:07.838Z,16.60
2018-04-19T06:37:34.275Z,14.83
2018-04-19T06:40:00.690Z,17.20
2018-04-19T06:42:27.176Z,16.63
2018-04-19T06:44:53.713Z,12.97
2018-04-19T06:47:20.199Z,14.43
2018-04-19T06:49:47.369Z,14.80
2018-04-19T06:52:14.518Z,14.00
2018-04-19T06:54:40.965Z,14.10
2018-04-19T06:57:07.477Z,15.13
2018-04-19T06:59:34.647Z,14.50
2018-04-19T07:02:01.838Z,13.87
2018-04-19T07:04:28.540Z,15.33
2018-04-19T07:06:55.054Z,13.07
2018-04-19T07:09:21.545Z,11.60
2018-04-19T07:11:47.982Z,18.70
2018-04-19T07:14:14.432Z,14.47
2018-04-19T07:16:40.881Z,14.07
2018-04-19T07:19:08.762Z,13.50
2018-04-19T07:21:35.265Z,15.53
2018-04-19T07:24:01.638Z,17.70
2018-04-19T07:26:28.244Z,15.33
2018-04-19T07:28:54.656Z,15.87
2018-04-19T07:31:21.129Z,16.87
2018-04-19T07:33:47.559Z,14.73
2018-04-19T07:36:14.021Z,17.20
2018-04-19T07:38:40.437Z,17.83
2018-04-19T07:41:07.000Z,15.27
2018-04-19T07:43:34.354Z,14.83
2018-04-19T07:46:01.630Z,14.23
2018-04-19T07:48:28.085Z,16.40
2018-04-19T07:50:54.566Z,19.87
2018-04-19T07:53:21.762Z,13.43
2018-04-19T07:55:48.219Z,15.70
2018-04-19T07:58:14.733Z,13.07
2018-04-19T08:00:41.159Z,14.87
2018-04-19T08:03:07.567Z,13.53
2018-04-19T08:05:34.737Z,14.40
2018-04-19T08:08:01.199Z,14.87
2018-04-19T08:10:27.670Z,14.93
2018-04-19T08:12:55.034Z,19.13
2018-04-19T08:15:22.190Z,16.90
2018-04-19T08:17:49.331Z,13.93
2018-04-19T08:20:16.597Z,11.57
2018-04-19T08:22:43.018Z,11.77
2018-04-19T08:25:09.474Z,10.90
2018-04-19T08:27:36.682Z,12.90
2018-04-19T08:30:03.147Z,17.00
2018-04-19T08:32:30.311Z,12.00
2018-04-19T08:34:56.771Z,12.77
2018-04-19T08:37:23.241Z,9.93
2018-04-19T08:39:49.707Z,11.47
2018-04-19T08:42:16.208Z,13.77
2018-04-19T08:44:42.655Z,14.97
2018-04-19T08:47:09.936Z,11.93
2018-04-19T08:49:37.124Z,15.00
2018-04-19T08:52:03.632Z,17.00
2018-04-19T08:54:30.109Z,14.27
2018-04-19T08:56:56.535Z,14.67
2018-04-19T08:59:23.530Z,13.80
2018-04-19T09:01:50.100Z,10.30
2018-04-19T09:04:16.763Z,15.97
2018-04-19T09:06:43.367Z,10.73
2018-04-19T09:09:09.879Z,8.53
2018-04-19T09:11:36.446Z,10.73
2018-04-19T09:14:03.167Z,8.90
2018-04-19T09:16:30.422Z,9.17
2018-04-19T09:18:57.618Z,12.60
2018-04-19T09:21:24.257Z,9.87
2018-04-19T09:23:50.773Z,8.50
2018-04-19T09:26:17.347Z,12.30
2018-04-19T09:28:43.849Z,10.00
2018-04-19T09:31:10.367Z,10.13
2018-04-19T09:33:36.814Z,11.50
2018-04-19T09:36:03.331Z,28.37
2018-04-19T09:38:30.575Z,16.70
2018-04-19T09:40:57.848Z,15.77
2018-04-19T09:43:24.288Z,13.10
2018-04-19T09:45:50.725Z,25.07
2018-04-19T09:48:17.126Z,15.23
2018-04-19T09:50:44.366Z,14.43
2018-04-19T09:53:10.800Z,13.27
2018-04-19T09:55:37.263Z,11.63
2018-04-19T09:58:07.476Z,14.40
2018-04-19T10:00:40.034Z,10.23
2018-04-19T10:03:06.503Z,12.93
2018-04-19T10:05:33.000Z,11.57
2018-04-19T10:07:59.477Z,12.10
2018-04-19T10:10:26.062Z,11.33
2018-04-19T10:12:52.474Z,11.77
2018-04-19T10:15:22.916Z,12.33
2018-04-19T10:17:49.342Z,12.00
2018-04-19T10:20:15.851Z,12.20
2018-04-19T10:22:42.315Z,12.43
2018-04-19T10:25:08.780Z,14.67
2018-04-19T10:27:36.002Z,15.27
2018-04-19T10:30:02.446Z,9.70
2018-04-19T10:32:28.878Z,10.83
2018-04-19T10:34:55.294Z,10.33
2018-04-19T10:37:21.734Z,11.17
2018-04-19T10:39:48.199Z,14.00
2018-04-19T10:42:14.675Z,17.07
2018-04-19T10:44:41.160Z,13.40
2018-04-19T10:47:11.529Z,11.47
2018-04-19T10:49:38.122Z,9.00
2018-04-19T10:52:04.546Z,15.07
2018-04-19T10:54:31.283Z,10.57
2018-04-19T10:56:57.768Z,10.87
2018-04-19T10:59:24.966Z,9.60
2018-04-19T11:01:51.389Z,8.93
2018-04-19T11:04:17.822Z,14.73
2018-04-19T11:06:44.255Z,11.93
2018-04-19T11:09:10.711Z,8.87
2018-04-19T11:11:37.191Z,5.70
2018-04-19T11:14:03.676Z,6.87
2018-04-19T11:16:30.119Z,7.30
2018-04-19T11:18:56.575Z,12.47
2018-04-19T11:21:23.026Z,8.23
2018-04-19T11:23:49.502Z,8.50
2018-04-19T11:26:15.978Z,12.17
2018-04-19T11:28:42.438Z,7.37
2018-04-19T11:31:09.649Z,8.43
2018-04-19T11:33:36.138Z,8.37
2018-04-19T11:36:02.640Z,9.73
2018-04-19T11:38:29.371Z,9.30
2018-04-19T11:40:55.786Z,10.37
2018-04-19T11:43:22.269Z,9.63
2018-04-19T11:45:49.476Z,6.63
2018-04-19T11:48:16.070Z,8.10
2018-04-19T11:50:42.487Z,7.33
2018-04-19T11:53:09.679Z,5.33
2018-04-19T11:55:36.125Z,8.20
2018-04-19T11:58:02.566Z,5.67
2018-04-19T12:00:29.007Z,6.10
2018-04-19T12:02:55.458Z,7.07
2018-04-19T12:05:22.658Z,5.33
2018-04-19T12:07:49.094Z,6.97
2018-04-19T12:10:15.566Z,3.70
2018-04-19T12:12:42.801Z,5.00
2018-04-19T12:15:09.242Z,5.93
2018-04-19T12:17:35.752Z,5.70
2018-04-19T12:20:02.282Z,6.47
2018-04-19T12:22:28.747Z,13.20
2018-04-19T12:24:55.245Z,5.87
2018-04-19T12:27:21.700Z,5.33
2018-04-19T12:29:48.117Z,6.63
2018-04-19T12:32:14.601Z,6.13
2018-04-19T12:34:41.022Z,11.60
2018-04-19T12:37:07.456Z,7.17
2018-04-19T12:39:33.854Z,7.80
2018-04-19T12:42:00.325Z,5.37
2018-04-19T12:44:26.767Z,11.03
2018-04-19T12:46:53.232Z,4.37
2018-04-19T12:49:20.351Z,6.23
2018-04-19T12:51:46.820Z,4.03
2018-04-19T12:54:13.270Z,7.10
2018-04-19T12:56:40.486Z,3.93
2018-04-19T12:59:07.730Z,4.37
2018-04-19T13:01:34.201Z,3.17
2018-04-19T13:04:01.367Z,4.57
2018-04-19T13:06:27.786Z,5.47
2018-04-19T13:08:54.974Z,3.10
2018-04-19T13:11:21.599Z,4.80
2018-04-19T13:13:48.042Z,4.07
2018-04-19T13:16:15.315Z,4.97
2018-04-19T13:18:41.829Z,3.97
2018-04-19T13:21:08.272Z,5.10
2018-04-19T13:23:34.741Z,3.10
2018-04-19T13:26:01.955Z,3.37
2018-04-19T13:28:28.373Z,4.87
2018-04-19T13:30:54.830Z,7.43
2018-04-19T13:33:22.250Z,4.97
2018-04-19T13:35:49.447Z,2.13
2018-04-19T13:38:15.886Z,3.43
2018-04-19T13:40:42.371Z,5.37
2018-04-19T13:43:09.521Z,5.53
2018-04-19T13:45:36.686Z,4.00
2018-04-19T13:48:03.891Z,4.10
2018-04-19T13:50:30.311Z,2.93
2018-04-19T13:52:56.993Z,5.60
2018-04-19T13:55:24.144Z,5.13
2018-04-19T13:57:52.071Z,4.13
2018-04-19T14:00:18.473Z,2.83
2018-04-19T14:02:44.890Z,4.07
2018-04-19T14:05:15.963Z,2.87
2018-04-19T14:07:42.415Z,3.23
2018-04-19T14:10:08.850Z,4.77
2018-04-19T14:12:35.339Z,3.33
2018-04-19T14:15:01.812Z,3.50
2018-04-19T14:17:28.349Z,4.10
2018-04-19T14:19:56.874Z,3.70
2018-04-19T14:22:24.069Z,3.00
2018-04-19T14:24:50.511Z,3.57
2018-04-19T14:27:16.995Z,4.00
2018-04-19T14:29:46.522Z,3.43
2018-04-19T14:32:13.763Z,5.17
2018-04-19T14:34:40.930Z,3.13
2018-04-19T14:37:19.473Z,3.90
2018-04-19T14:39:57.066Z,8.03
2018-04-19T14:42:23.688Z,4.37
2018-04-19T14:44:55.971Z,2.80
2018-04-19T14:47:31.697Z,2.90
2018-04-19T14:49:58.186Z,3.40
2018-04-19T14:52:31.732Z,8.30
2018-04-19T14:54:58.221Z,6.27
2018-04-19T14:57:24.704Z,4.73
2018-04-19T14:59:51.149Z,3.50
2018-04-19T15:02:27.122Z,4.10
2018-04-19T15:04:55.418Z,5.53
2018-04-19T15:07:27.815Z,6.20
2018-04-19T15:09:55.112Z,4.20
2018-04-19T15:12:28.862Z,2.43
2018-04-19T15:14:56.087Z,5.70
2018-04-19T15:17:32.611Z,2.93
2018-04-19T15:20:01.939Z,8.13
2018-04-19T15:22:41.390Z,3.90
2018-04-19T15:25:07.849Z,4.70
2018-04-19T15:27:34.314Z,6.70
2018-04-19T15:30:00.766Z,5.93
2018-04-19T15:32:27.166Z,2.87
2018-04-19T15:34:53.621Z,3.63
2018-04-19T15:37:20.098Z,7.40
2018-04-19T15:39:46.540Z,2.90
2018-04-19T15:42:13.798Z,3.67
2018-04-19T15:44:40.243Z,5.17
2018-04-19T15:47:06.672Z,4.47
2018-04-19T15:49:33.120Z,4.13
2018-04-19T15:51:59.547Z,8.67
2018-04-19T15:54:26.014Z,3.80
2018-04-19T15:56:52.479Z,7.50
2018-04-19T15:59:18.957Z,10.23
2018-04-19T16:01:45.454Z,4.13
2018-04-19T16:04:11.958Z,2.37
2018-04-19T16:06:39.113Z,4.77
2018-04-19T16:09:06.342Z,3.77
2018-04-19T16:11:32.854Z,3.77
2018-04-19T16:13:59.346Z,8.50
2018-04-19T16:16:25.839Z,5.50
2018-04-19T16:18:52.310Z,7.27
2018-04-19T16:21:18.774Z,4.70
2018-04-19T16:23:45.357Z,2.57
2018-04-19T16:26:11.832Z,2.30
2018-04-19T16:28:38.321Z,2.20
2018-04-19T16:31:04.769Z,4.53
2018-04-19T16:33:31.251Z,6.30
2018-04-19T16:35:57.823Z,3.90
2018-04-19T16:38:24.289Z,2.40
2018-04-19T16:40:50.719Z,4.73
2018-04-19T16:43:17.192Z,3.83
2018-04-19T16:45:43.607Z,4.53
2018-04-19T16:48:10.124Z,3.27
2018-04-19T16:50:36.965Z,3.57
2018-04-19T16:53:10.208Z,8.10
2018-04-19T16:55:40.857Z,6.07
2018-04-19T16:58:07.365Z,4.23
2018-04-19T17:00:34.623Z,2.43
2018-04-19T17:03:01.178Z,9.97
2018-04-19T17:05:27.603Z,2.87
2018-04-19T17:07:54.045Z,3.90
2018-04-19T17:10:20.481Z,6.53
2018-04-19T17:12:47.026Z,5.17
2018-04-19T17:15:13.486Z,3.27
2018-04-19T17:17:39.986Z,4.30
2018-04-19T17:20:10.392Z,3.33
2018-04-19T17:22:37.576Z,5.60
2018-04-19T17:25:04.091Z,3.90
2018-04-19T17:27:30.970Z,3.50
2018-04-19T17:30:00.528Z,7.03
2018-04-19T17:32:27.120Z,3.83
2018-04-19T17:34:59.584Z,6.90
2018-04-19T17:37:31.939Z,7.07
2018-04-19T17:39:58.366Z,4.87
2018-04-19T17:42:25.881Z,3.47
2018-04-19T17:44:52.309Z,3.10
2018-04-19T17:47:18.754Z,5.53
2018-04-19T17:49:45.982Z,2.53
2018-04-19T17:52:12.542Z,4.87
2018-04-19T17:54:39.024Z,5.97
2018-04-19T17:57:05.608Z,8.87
2018-04-19T17:59:32.016Z,18.70
2018-04-19T18:01:58.494Z,13.63
2018-04-19T18:04:24.996Z,6.87
2018-04-19T18:06:52.205Z,3.00
2018-04-19T18:09:18.653Z,3.07
2018-04-19T18:11:45.129Z,3.97
2018-04-19T18:14:11.603Z,3.80
2018-04-19T18:16:39.118Z,2.10
2018-04-19T18:19:05.875Z,2.03
2018-04-19T18:21:32.395Z,3.30
2018-04-19T18:23:58.903Z,5.23
2018-04-19T18:26:25.410Z,2.97
2018-04-19T18:28:51.952Z,2.67
2018-04-19T18:31:22.259Z,3.30
2018-04-19T18:33:49.482Z,3.10
2018-04-19T18:36:15.907Z,4.00
2018-04-19T18:38:42.853Z,2.30
2018-04-19T18:41:10.387Z,2.40
2018-04-19T18:43:37.122Z,7.97
2018-04-19T18:46:03.993Z,2.43
2018-04-19T18:48:32.633Z,1.50
2018-04-19T18:50:59.270Z,1.70
2018-04-19T18:53:26.059Z,2.90
2018-04-19T18:55:52.663Z,1.93
2018-04-19T18:58:19.254Z,1.57
2018-04-19T19:00:46.520Z,4.07
2018-04-19T19:03:13.652Z,2.60
2018-04-19T19:05:41.007Z,3.07
2018-04-19T19:08:07.603Z,2.30
2018-04-19T19:10:34.127Z,2.57
2018-04-19T19:13:00.719Z,2.80
2018-04-19T19:18:58.325Z,2.97
2018-04-19T19:21:24.853Z,1.93
2018-04-19T19:23:51.295Z,2.80
2018-04-19T19:26:17.872Z,1.63
2018-04-19T19:28:44.333Z,5.37
2018-04-19T19:31:10.805Z,1.57
2018-04-19T19:33:37.299Z,1.57
2018-04-19T19:36:03.717Z,2.73
2018-04-19T19:38:30.446Z,2.67
2018-04-19T19:40:56.906Z,3.77
2018-04-19T19:43:24.276Z,3.63
2018-04-19T19:45:50.970Z,2.70
2018-04-19T19:48:17.519Z,3.83
2018-04-19T19:50:44.039Z,3.43
2018-04-19T19:53:10.621Z,3.10
2018-04-19T19:55:37.103Z,1.33
2018-04-19T19:58:03.768Z,2.63
2018-04-19T20:00:30.350Z,3.47
2018-04-19T20:02:56.931Z,1.90
2018-04-19T20:05:23.710Z,2.97
2018-04-19T20:07:50.303Z,4.20
2018-04-19T20:10:16.882Z,3.90
2018-04-19T20:12:43.482Z,7.83
2018-04-19T20:15:10.015Z,4.40
2018-04-19T20:17:36.979Z,5.73
2018-04-19T20:20:04.374Z,3.57
2018-04-19T20:22:31.751Z,6.23
2018-04-19T20:24:58.643Z,3.60
2018-04-19T20:27:25.219Z,7.40
2018-04-19T20:29:54.315Z,2.90
2018-04-19T20:32:20.890Z,6.97
2018-04-19T20:34:48.178Z,7.80
2018-04-19T20:37:14.670Z,7.27
2018-04-19T20:39:41.298Z,5.33
2018-04-19T20:42:08.734Z,5.53
2018-04-19T20:44:35.236Z,6.73
2018-04-19T20:47:01.885Z,7.03
2018-04-19T20:49:28.399Z,4.47
2018-04-19T20:51:54.957Z,6.80
2018-04-19T20:54:21.575Z,4.97
2018-04-19T20:56:48.079Z,5.93
2018-04-19T20:59:15.346Z,5.57
2018-04-19T21:01:41.857Z,5.97
2018-04-19T21:04:08.387Z,6.93
2018-04-19T21:06:36.695Z,11.90
2018-04-19T21:09:03.651Z,6.63
2018-04-19T21:11:30.360Z,5.10
2018-04-19T21:13:56.957Z,8.67
2018-04-19T21:16:23.540Z,4.67
2018-04-19T21:18:50.098Z,9.20
2018-04-19T21:21:16.677Z,6.90
2018-04-19T21:23:43.247Z,5.43
2018-04-19T21:26:09.856Z,4.40
2018-04-19T21:28:36.469Z,9.63
2018-04-19T21:31:03.226Z,7.70
2018-04-19T21:33:29.786Z,5.43
2018-04-19T21:35:56.555Z,6.47
2018-04-19T21:38:23.076Z,6.10
2018-04-19T21:40:50.550Z,5.77
2018-04-19T21:43:17.839Z,4.97
2018-04-19T21:45:44.379Z,7.77
2018-04-19T21:48:10.821Z,3.87
2018-04-19T21:50:37.318Z,3.87
2018-04-19T21:53:04.486Z,7.73
2018-04-19T21:55:31.947Z,7.43
2018-04-19T21:57:58.379Z,6.00
2018-04-19T22:00:24.997Z,6.60
2018-04-19T22:02:52.191Z,5.63
2018-04-19T22:05:18.625Z,10.60
2018-04-19T22:07:45.192Z,8.70
2018-04-19T22:10:11.627Z,4.97
2018-04-19T22:12:38.160Z,6.03
2018-04-19T22:15:06.110Z,2.63
2018-04-19T22:17:32.667Z,4.17
2018-04-19T22:19:59.142Z,3.70
2018-04-19T22:22:25.694Z,4.73
2018-04-19T22:24:52.486Z,6.37
2018-04-19T22:27:18.958Z,4.57
2018-04-19T22:29:46.235Z,4.00
2018-04-19T22:32:13.680Z,5.87
2018-04-19T22:34:40.378Z,7.77
2018-04-19T22:37:06.879Z,6.73
2018-04-19T22:39:33.595Z,5.60
2018-04-19T22:42:00.602Z,4.50
2018-04-19T22:44:27.143Z,3.70
2018-04-19T22:46:53.767Z,6.57
2018-04-19T22:49:20.251Z,7.37
2018-04-19T22:51:46.806Z,2.73
2018-04-19T22:54:13.387Z,4.13
2018-04-19T22:56:39.933Z,3.27
2018-04-19T22:59:06.530Z,3.50
2018-04-19T23:01:33.088Z,5.13
2018-04-19T23:03:59.661Z,4.97
2018-04-19T23:06:26.184Z,4.20
2018-04-19T23:08:52.793Z,4.17
2018-04-19T23:11:19.290Z,4.27
2018-04-19T23:13:45.831Z,9.13
2018-04-19T23:16:12.357Z,5.20
2018-04-19T23:18:39.669Z,7.97
2018-04-19T23:21:06.312Z,10.10
2018-04-19T23:23:32.946Z,9.93
2018-04-19T23:25:59.519Z,7.13
2018-04-19T23:28:26.139Z,7.47
2018-04-19T23:30:52.677Z,7.07
2018-04-19T23:33:19.999Z,5.97
2018-04-19T23:35:46.656Z,5.97
2018-04-19T23:38:13.199Z,4.03
2018-04-19T23:40:40.587Z,6.90
2018-04-19T23:43:07.134Z,5.60
2018-04-19T23:45:33.744Z,6.07
2018-04-19T23:48:01.011Z,8.43
2018-04-19T23:50:27.583Z,2.30
2018-04-19T23:52:54.103Z,3.00
2018-04-19T23:55:20.713Z,3.23
2018-04-19T23:57:47.307Z,2.33
